sensor_id;sensor_type;location;lat;lon;timestamp;pressure;altitude;pressure_sealevel;temperature;humidity
42361;BME280;54542;51.562;0.004;2022-07-12T01:34:32;102200.58;;;19.90;34.94
42361;BME280;54542;51.562;0.004;2022-07-12T01:37:00;102199.78;;;20.55;34.61
42361;BME280;54542;51.562;0.004;2022-07-12T01:39:27;102204.24;;;20.63;34.56
42361;BME280;54542;51.562;0.004;2022-07-12T01:41:55;102208.77;;;20.62;34.45
42361;BME280;54542;51.562;0.004;2022-07-12T01:44:22;102210.46;;;21.44;34.35
42361;BME280;54542;51.562;0.004;2022-07-12T01:46:49;102210.13;;;20.55;34.42
42361;BME280;54542;51.562;0.004;2022-07-12T01:49:17;102211.79;;;20.51;34.40
42361;BME280;54542;51.562;0.004;2022-07-12T01:51:44;102215.44;;;20.47;34.61
42361;BME280;54542;51.562;0.004;2022-07-12T01:54:11;102218.71;;;20.63;35.16
42361;BME280;54542;51.562;0.004;2022-07-12T01:56:39;102224.09;;;20.58;35.01
42361;BME280;54542;51.562;0.004;2022-07-12T01:59:06;102224.76;;;20.46;35.32
42361;BME280;54542;51.562;0.004;2022-07-12T02:01:36;102225.64;;;19.93;35.30
42361;BME280;54542;51.562;0.004;2022-07-12T02:04:03;102222.58;;;20.13;35.17
42361;BME280;54542;51.562;0.004;2022-07-12T02:06:32;102220.52;;;19.83;35.29
42361;BME280;54542;51.562;0.004;2022-07-12T02:09:00;102214.10;;;19.75;35.35
42361;BME280;54542;51.562;0.004;2022-07-12T02:11:27;102207.16;;;20.01;35.47
42361;BME280;54542;51.562;0.004;2022-07-12T02:13:54;102211.11;;;19.96;35.65
42361;BME280;54542;51.562;0.004;2022-07-12T02:16:21;102214.04;;;20.06;35.32
42361;BME280;54542;51.562;0.004;2022-07-12T02:18:48;102217.25;;;20.20;34.99
42361;BME280;54542;51.562;0.004;2022-07-12T02:21:15;102219.89;;;20.18;35.51
42361;BME280;54542;51.562;0.004;2022-07-12T02:23:43;102223.84;;;20.11;35.93
42361;BME280;54542;51.562;0.004;2022-07-12T02:26:10;102223.94;;;20.09;35.51
42361;BME280;54542;51.562;0.004;2022-07-12T02:28:38;102228.73;;;20.43;35.85
42361;BME280;54542;51.562;0.004;2022-07-12T02:31:05;102224.07;;;20.44;36.05
42361;BME280;54542;51.562;0.004;2022-07-12T02:33:32;102207.26;;;19.94;36.52
42361;BME280;54542;51.562;0.004;2022-07-12T02:35:59;102198.00;;;20.01;35.83
42361;BME280;54542;51.562;0.004;2022-07-12T02:38:26;102196.85;;;20.03;35.40
42361;BME280;54542;51.562;0.004;2022-07-12T02:40:52;102204.87;;;20.16;35.15
42361;BME280;54542;51.562;0.004;2022-07-12T02:43:20;102207.32;;;20.31;35.09
42361;BME280;54542;51.562;0.004;2022-07-12T02:45:48;102209.23;;;20.29;35.05
42361;BME280;54542;51.562;0.004;2022-07-12T02:48:15;102204.89;;;20.27;35.78
42361;BME280;54542;51.562;0.004;2022-07-12T02:50:43;102197.91;;;20.25;35.68
42361;BME280;54542;51.562;0.004;2022-07-12T02:53:11;102198.94;;;19.86;35.33
42361;BME280;54542;51.562;0.004;2022-07-12T02:55:38;102205.41;;;20.28;35.03
42361;BME280;54542;51.562;0.004;2022-07-12T02:58:06;102213.67;;;19.81;35.16
42361;BME280;54542;51.562;0.004;2022-07-12T03:00:34;102212.89;;;20.21;35.29
42361;BME280;54542;51.562;0.004;2022-07-12T03:03:02;102211.78;;;20.06;35.51
42361;BME280;54542;51.562;0.004;2022-07-12T03:05:29;102217.21;;;19.87;35.78
42361;BME280;54542;51.562;0.004;2022-07-12T03:07:57;102213.38;;;19.88;35.74
42361;BME280;54542;51.562;0.004;2022-07-12T03:10:24;102206.18;;;19.41;36.12
42361;BME280;54542;51.562;0.004;2022-07-12T03:12:51;102207.82;;;19.76;36.45
42361;BME280;54542;51.562;0.004;2022-07-12T03:15:18;102206.80;;;19.72;35.85
42361;BME280;54542;51.562;0.004;2022-07-12T03:17:46;102204.41;;;19.73;35.92
42361;BME280;54542;51.562;0.004;2022-07-12T03:20:13;102204.22;;;19.63;35.86
42361;BME280;54542;51.562;0.004;2022-07-12T03:22:40;102201.87;;;19.61;36.08
42361;BME280;54542;51.562;0.004;2022-07-12T03:25:08;102200.26;;;19.62;35.81
42361;BME280;54542;51.562;0.004;2022-07-12T03:27:36;102200.65;;;19.63;35.56
42361;BME280;54542;51.562;0.004;2022-07-12T03:30:03;102204.52;;;19.58;35.84
42361;BME280;54542;51.562;0.004;2022-07-12T03:32:31;102197.23;;;19.94;36.26
42361;BME280;54542;51.562;0.004;2022-07-12T03:34:59;102197.68;;;19.36;36.62
42361;BME280;54542;51.562;0.004;2022-07-12T03:37:27;102196.93;;;19.26;37.00
42361;BME280;54542;51.562;0.004;2022-07-12T03:39:54;102195.45;;;19.28;36.75
42361;BME280;54542;51.562;0.004;2022-07-12T03:42:22;102189.89;;;19.57;37.13
42361;BME280;54542;51.562;0.004;2022-07-12T03:44:48;102186.06;;;19.08;37.10
42361;BME280;54542;51.562;0.004;2022-07-12T03:47:15;102181.01;;;19.15;37.30
42361;BME280;54542;51.562;0.004;2022-07-12T03:49:42;102179.75;;;19.17;36.90
42361;BME280;54542;51.562;0.004;2022-07-12T03:52:10;102173.63;;;19.57;37.16
42361;BME280;54542;51.562;0.004;2022-07-12T03:54:37;102171.37;;;19.60;37.22
42361;BME280;54542;51.562;0.004;2022-07-12T03:57:04;102175.43;;;19.24;37.01
42361;BME280;54542;51.562;0.004;2022-07-12T03:59:31;102177.00;;;19.41;36.67
42361;BME280;54542;51.562;0.004;2022-07-12T04:01:59;102181.03;;;19.90;36.65
42361;BME280;54542;51.562;0.004;2022-07-12T04:04:27;102181.63;;;19.35;36.81
42361;BME280;54542;51.562;0.004;2022-07-12T04:06:55;102183.13;;;19.38;37.16
42361;BME280;54542;51.562;0.004;2022-07-12T04:09:22;102184.58;;;19.31;37.25
42361;BME280;54542;51.562;0.004;2022-07-12T04:11:50;102184.96;;;19.29;37.49
42361;BME280;54542;51.562;0.004;2022-07-12T04:14:17;102181.91;;;19.69;37.84
42361;BME280;54542;51.562;0.004;2022-07-12T04:16:45;102185.26;;;19.79;37.73
42361;BME280;54542;51.562;0.004;2022-07-12T04:19:12;102192.23;;;19.75;37.47
42361;BME280;54542;51.562;0.004;2022-07-12T04:21:40;102190.92;;;19.24;37.32
42361;BME280;54542;51.562;0.004;2022-07-12T04:24:07;102191.34;;;19.81;37.29
42361;BME280;54542;51.562;0.004;2022-07-12T04:26:34;102192.66;;;19.22;37.90
42361;BME280;54542;51.562;0.004;2022-07-12T04:29:02;102188.86;;;20.12;38.28
42361;BME280;54542;51.562;0.004;2022-07-12T04:31:29;102186.63;;;19.15;38.20
42361;BME280;54542;51.562;0.004;2022-07-12T04:33:56;102191.31;;;19.05;38.32
42361;BME280;54542;51.562;0.004;2022-07-12T04:36:23;102192.52;;;20.07;38.16
42361;BME280;54542;51.562;0.004;2022-07-12T04:38:50;102192.51;;;19.68;38.00
42361;BME280;54542;51.562;0.004;2022-07-12T04:41:17;102196.32;;;19.14;38.09
42361;BME280;54542;51.562;0.004;2022-07-12T04:43:44;102198.50;;;19.69;38.18
42361;BME280;54542;51.562;0.004;2022-07-12T04:46:11;102201.46;;;19.16;38.32
42361;BME280;54542;51.562;0.004;2022-07-12T04:48:38;102207.12;;;19.67;38.27
42361;BME280;54542;51.562;0.004;2022-07-12T04:51:05;102212.01;;;19.10;38.54
42361;BME280;54542;51.562;0.004;2022-07-12T04:53:32;102207.29;;;19.05;38.67
42361;BME280;54542;51.562;0.004;2022-07-12T04:55:59;102204.57;;;19.10;39.36
42361;BME280;54542;51.562;0.004;2022-07-12T04:58:26;102204.15;;;20.00;39.51
42361;BME280;54542;51.562;0.004;2022-07-12T05:00:54;102209.65;;;19.02;39.55
42361;BME280;54542;51.562;0.004;2022-07-12T05:03:21;102207.46;;;19.03;39.43
42361;BME280;54542;51.562;0.004;2022-07-12T05:05:48;102204.77;;;19.59;39.37
42361;BME280;54542;51.562;0.004;2022-07-12T05:08:15;102203.53;;;19.11;39.70
42361;BME280;54542;51.562;0.004;2022-07-12T05:10:42;102206.72;;;19.70;39.46
42361;BME280;54542;51.562;0.004;2022-07-12T05:13:10;102208.34;;;19.35;39.28
42361;BME280;54542;51.562;0.004;2022-07-12T05:15:37;102210.63;;;19.40;38.96
42361;BME280;54542;51.562;0.004;2022-07-12T05:18:03;102212.25;;;19.35;39.72
42361;BME280;54542;51.562;0.004;2022-07-12T05:20:31;102212.49;;;19.72;39.32
42361;BME280;54542;51.562;0.004;2022-07-12T05:22:58;102211.66;;;19.91;39.49
42361;BME280;54542;51.562;0.004;2022-07-12T05:25:25;102214.71;;;19.41;39.73
42361;BME280;54542;51.562;0.004;2022-07-12T05:27:52;102218.87;;;19.44;39.52
42361;BME280;54542;51.562;0.004;2022-07-12T05:30:19;102223.71;;;19.44;39.65
42361;BME280;54542;51.562;0.004;2022-07-12T05:32:47;102228.07;;;19.40;39.74
42361;BME280;54542;51.562;0.004;2022-07-12T05:35:14;102232.14;;;19.40;40.34
42361;BME280;54542;51.562;0.004;2022-07-12T05:37:41;102233.51;;;19.02;40.34
42361;BME280;54542;51.562;0.004;2022-07-12T05:40:09;102239.43;;;19.38;40.56
42361;BME280;54542;51.562;0.004;2022-07-12T05:42:36;102240.19;;;19.30;40.44
42361;BME280;54542;51.562;0.004;2022-07-12T05:45:05;102240.65;;;19.39;40.79
42361;BME280;54542;51.562;0.004;2022-07-12T05:47:33;102238.36;;;19.89;40.88
42361;BME280;54542;51.562;0.004;2022-07-12T05:49:59;102234.36;;;19.40;40.79
42361;BME280;54542;51.562;0.004;2022-07-12T05:52:26;102231.77;;;19.88;40.81
42361;BME280;54542;51.562;0.004;2022-07-12T05:54:53;102231.22;;;19.52;41.11
42361;BME280;54542;51.562;0.004;2022-07-12T05:57:21;102234.51;;;19.64;40.61
42361;BME280;54542;51.562;0.004;2022-07-12T05:59:48;102236.23;;;19.81;40.71
42361;BME280;54542;51.562;0.004;2022-07-12T06:02:15;102239.69;;;19.83;40.72
42361;BME280;54542;51.562;0.004;2022-07-12T06:04:42;102239.40;;;19.99;40.42
42361;BME280;54542;51.562;0.004;2022-07-12T06:07:09;102234.33;;;19.98;40.39
42361;BME280;54542;51.562;0.004;2022-07-12T06:09:36;102234.69;;;19.99;40.54
42361;BME280;54542;51.562;0.004;2022-07-12T06:12:05;102235.31;;;20.11;40.22
42361;BME280;54542;51.562;0.004;2022-07-12T06:14:32;102230.83;;;20.11;40.17
42361;BME280;54542;51.562;0.004;2022-07-12T06:16:59;102233.48;;;20.13;40.21
42361;BME280;54542;51.562;0.004;2022-07-12T06:19:27;102229.38;;;20.11;40.17
42361;BME280;54542;51.562;0.004;2022-07-12T06:21:53;102226.41;;;20.09;40.37
42361;BME280;54542;51.562;0.004;2022-07-12T06:24:21;102226.18;;;19.96;40.15
42361;BME280;54542;51.562;0.004;2022-07-12T06:26:48;102224.84;;;20.04;40.45
42361;BME280;54542;51.562;0.004;2022-07-12T06:29:15;102221.83;;;20.08;40.49
42361;BME280;54542;51.562;0.004;2022-07-12T06:31:42;102222.85;;;19.60;40.86
42361;BME280;54542;51.562;0.004;2022-07-12T06:34:09;102225.11;;;20.22;40.49
42361;BME280;54542;51.562;0.004;2022-07-12T06:36:37;102226.19;;;20.25;40.15
42361;BME280;54542;51.562;0.004;2022-07-12T06:39:04;102228.67;;;20.29;39.66
42361;BME280;54542;51.562;0.004;2022-07-12T06:41:30;102228.58;;;20.42;39.14
42361;BME280;54542;51.562;0.004;2022-07-12T06:43:58;102225.76;;;20.30;38.98
42361;BME280;54542;51.562;0.004;2022-07-12T06:46:25;102225.38;;;20.11;39.08
42361;BME280;54542;51.562;0.004;2022-07-12T06:48:52;102228.29;;;20.41;38.37
42361;BME280;54542;51.562;0.004;2022-07-12T06:51:20;102225.26;;;20.55;38.25
42361;BME280;54542;51.562;0.004;2022-07-12T06:53:47;102226.98;;;21.42;38.06
42361;BME280;54542;51.562;0.004;2022-07-12T06:56:14;102222.10;;;20.74;37.82
42361;BME280;54542;51.562;0.004;2022-07-12T06:58:41;102221.19;;;21.04;37.68
42361;BME280;54542;51.562;0.004;2022-07-12T07:01:08;102220.35;;;21.04;37.83
42361;BME280;54542;51.562;0.004;2022-07-12T07:03:36;102214.32;;;20.53;37.80
42361;BME280;54542;51.562;0.004;2022-07-12T07:06:03;102219.72;;;21.17;37.45
42361;BME280;54542;51.562;0.004;2022-07-12T07:08:30;102221.22;;;20.52;37.59
42361;BME280;54542;51.562;0.004;2022-07-12T07:10:57;102221.06;;;20.96;37.35
42361;BME280;54542;51.562;0.004;2022-07-12T07:13:25;102223.93;;;21.61;37.30
42361;BME280;54542;51.562;0.004;2022-07-12T07:15:53;102223.45;;;20.09;38.61
42361;BME280;54542;51.562;0.004;2022-07-12T07:18:20;102227.78;;;20.35;38.35
42361;BME280;54542;51.562;0.004;2022-07-12T07:20:48;102226.64;;;20.36;38.83
42361;BME280;54542;51.562;0.004;2022-07-12T07:23:16;102224.50;;;20.59;38.76
42361;BME280;54542;51.562;0.004;2022-07-12T07:25:44;102223.86;;;20.59;38.79
42361;BME280;54542;51.562;0.004;2022-07-12T07:28:11;102221.06;;;21.56;37.99
42361;BME280;54542;51.562;0.004;2022-07-12T07:30:38;102221.45;;;20.90;38.09
42361;BME280;54542;51.562;0.004;2022-07-12T07:33:06;102217.11;;;20.71;38.05
42361;BME280;54542;51.562;0.004;2022-07-12T07:35:34;102212.53;;;20.63;37.90
42361;BME280;54542;51.562;0.004;2022-07-12T07:38:01;102215.81;;;21.36;37.96
42361;BME280;54542;51.562;0.004;2022-07-12T07:40:29;102216.39;;;20.95;37.90
42361;BME280;54542;51.562;0.004;2022-07-12T07:42:57;102208.22;;;20.90;37.52
42361;BME280;54542;51.562;0.004;2022-07-12T07:45:24;102203.38;;;21.01;37.36
42361;BME280;54542;51.562;0.004;2022-07-12T07:47:52;102202.57;;;20.71;37.82
42361;BME280;54542;51.562;0.004;2022-07-12T07:50:19;102201.02;;;21.76;36.88
42361;BME280;54542;51.562;0.004;2022-07-12T07:52:47;102197.63;;;21.20;37.31
42361;BME280;54542;51.562;0.004;2022-07-12T07:55:15;102197.84;;;20.61;37.50
42361;BME280;54542;51.562;0.004;2022-07-12T07:57:43;102199.20;;;21.69;36.96
42361;BME280;54542;51.562;0.004;2022-07-12T08:00:11;102206.53;;;21.47;38.01
42361;BME280;54542;51.562;0.004;2022-07-12T08:02:40;102209.57;;;20.84;38.41
42361;BME280;54542;51.562;0.004;2022-07-12T08:05:07;102215.63;;;20.71;38.27
42361;BME280;54542;51.562;0.004;2022-07-12T08:07:34;102225.21;;;20.84;38.47
42361;BME280;54542;51.562;0.004;2022-07-12T08:10:01;102223.47;;;21.57;37.65
42361;BME280;54542;51.562;0.004;2022-07-12T08:12:29;102223.75;;;21.62;37.45
42361;BME280;54542;51.562;0.004;2022-07-12T08:14:56;102219.75;;;22.01;36.57
42361;BME280;54542;51.562;0.004;2022-07-12T08:17:24;102220.54;;;22.18;36.59
42361;BME280;54542;51.562;0.004;2022-07-12T08:19:52;102215.90;;;22.35;36.41
42361;BME280;54542;51.562;0.004;2022-07-12T08:22:19;102218.54;;;22.34;35.78
42361;BME280;54542;51.562;0.004;2022-07-12T08:24:47;102217.36;;;22.37;35.53
42361;BME280;54542;51.562;0.004;2022-07-12T08:27:14;102220.93;;;22.37;35.20
42361;BME280;54542;51.562;0.004;2022-07-12T08:29:43;102224.35;;;22.13;36.30
42361;BME280;54542;51.562;0.004;2022-07-12T08:32:10;102219.80;;;22.47;36.05
42361;BME280;54542;51.562;0.004;2022-07-12T08:34:37;102224.81;;;22.19;36.23
42361;BME280;54542;51.562;0.004;2022-07-12T08:37:05;102227.51;;;22.77;35.37
42361;BME280;54542;51.562;0.004;2022-07-12T08:39:32;102232.22;;;24.07;34.51
42361;BME280;54542;51.562;0.004;2022-07-12T08:42:00;102230.10;;;23.07;33.75
42361;BME280;54542;51.562;0.004;2022-07-12T08:44:27;102238.97;;;23.21;33.07
42361;BME280;54542;51.562;0.004;2022-07-12T08:46:55;102239.46;;;22.57;33.15
42361;BME280;54542;51.562;0.004;2022-07-12T08:49:22;102240.75;;;23.83;33.10
42361;BME280;54542;51.562;0.004;2022-07-12T08:51:50;102242.07;;;23.21;32.61
42361;BME280;54542;51.562;0.004;2022-07-12T08:54:18;102245.65;;;23.65;32.26
42361;BME280;54542;51.562;0.004;2022-07-12T08:56:45;102248.09;;;22.94;32.77
42361;BME280;54542;51.562;0.004;2022-07-12T08:59:14;102252.18;;;23.66;31.79
42361;BME280;54542;51.562;0.004;2022-07-12T09:01:43;102249.96;;;23.27;32.61
42361;BME280;54542;51.562;0.004;2022-07-12T09:04:12;102251.08;;;23.60;32.32
42361;BME280;54542;51.562;0.004;2022-07-12T09:06:40;102251.87;;;24.02;31.75
42361;BME280;54542;51.562;0.004;2022-07-12T09:09:08;102251.06;;;23.72;32.25
42361;BME280;54542;51.562;0.004;2022-07-12T09:11:37;102251.73;;;23.95;32.09
42361;BME280;54542;51.562;0.004;2022-07-12T09:14:06;102252.35;;;23.58;31.82
42361;BME280;54542;51.562;0.004;2022-07-12T09:16:33;102254.06;;;23.95;31.53
42361;BME280;54542;51.562;0.004;2022-07-12T09:19:18;102254.82;;;24.07;31.44
42361;BME280;54542;51.562;0.004;2022-07-12T09:21:48;102259.65;;;23.54;31.49
42361;BME280;54542;51.562;0.004;2022-07-12T09:24:15;102255.03;;;24.30;31.42
42361;BME280;54542;51.562;0.004;2022-07-12T09:26:43;102251.15;;;23.98;31.68
42361;BME280;54542;51.562;0.004;2022-07-12T09:29:12;102241.57;;;24.00;31.59
42361;BME280;54542;51.562;0.004;2022-07-12T09:31:41;102234.86;;;23.42;31.03
42361;BME280;54542;51.562;0.004;2022-07-12T09:34:08;102234.07;;;23.21;31.53
42361;BME280;54542;51.562;0.004;2022-07-12T09:36:36;102225.68;;;23.21;31.42
42361;BME280;54542;51.562;0.004;2022-07-12T09:39:03;102218.00;;;23.66;30.68
42361;BME280;54542;51.562;0.004;2022-07-12T09:41:32;102213.30;;;24.22;30.21
42361;BME280;54542;51.562;0.004;2022-07-12T09:44:00;102214.02;;;23.67;30.25
42361;BME280;54542;51.562;0.004;2022-07-12T09:46:28;102214.16;;;23.84;29.73
42361;BME280;54542;51.562;0.004;2022-07-12T09:48:57;102218.09;;;24.10;29.81
42361;BME280;54542;51.562;0.004;2022-07-12T09:51:25;102212.00;;;23.68;29.52
42361;BME280;54542;51.562;0.004;2022-07-12T09:53:57;102206.22;;;23.52;30.38
42361;BME280;54542;51.562;0.004;2022-07-12T09:56:26;102196.86;;;23.27;30.61
42361;BME280;54542;51.562;0.004;2022-07-12T09:58:56;102194.06;;;24.09;30.30
42361;BME280;54542;51.562;0.004;2022-07-12T10:01:24;102198.46;;;24.16;30.00
42361;BME280;54542;51.562;0.004;2022-07-12T10:03:52;102204.84;;;24.38;29.31
42361;BME280;54542;51.562;0.004;2022-07-12T10:06:24;102207.35;;;25.42;28.81
42361;BME280;54542;51.562;0.004;2022-07-12T10:08:52;102210.92;;;24.16;29.30
42361;BME280;54542;51.562;0.004;2022-07-12T10:11:21;102206.14;;;23.99;30.06
42361;BME280;54542;51.562;0.004;2022-07-12T10:13:49;102204.21;;;24.07;29.89
42361;BME280;54542;51.562;0.004;2022-07-12T10:16:24;102206.03;;;24.40;29.58
42361;BME280;54542;51.562;0.004;2022-07-12T10:19:21;102202.78;;;24.28;29.80
42361;BME280;54542;51.562;0.004;2022-07-12T10:21:49;102203.31;;;25.06;29.25
42361;BME280;54542;51.562;0.004;2022-07-12T10:24:50;102205.04;;;26.03;29.65
42361;BME280;54542;51.562;0.004;2022-07-12T10:27:33;102202.85;;;25.54;29.77
42361;BME280;54542;51.562;0.004;2022-07-12T10:30:42;102201.29;;;25.94;30.06
42361;BME280;54542;51.562;0.004;2022-07-12T10:33:15;102212.39;;;24.42;30.13
42361;BME280;54542;51.562;0.004;2022-07-12T10:35:58;102215.82;;;25.01;29.53
42361;BME280;54542;51.562;0.004;2022-07-12T10:38:26;102210.83;;;24.43;29.78
42361;BME280;54542;51.562;0.004;2022-07-12T10:40:53;102209.85;;;24.13;29.85
42361;BME280;54542;51.562;0.004;2022-07-12T10:43:26;102204.27;;;25.10;30.05
42361;BME280;54542;51.562;0.004;2022-07-12T10:45:54;102203.74;;;24.50;30.12
42361;BME280;54542;51.562;0.004;2022-07-12T10:48:31;102195.27;;;24.37;30.02
42361;BME280;54542;51.562;0.004;2022-07-12T10:50:58;102189.66;;;24.51;30.30
42361;BME280;54542;51.562;0.004;2022-07-12T10:53:30;102184.68;;;25.14;29.92
42361;BME280;54542;51.562;0.004;2022-07-12T10:56:16;102182.64;;;25.21;29.64
42361;BME280;54542;51.562;0.004;2022-07-12T10:58:46;102185.35;;;25.67;29.45
42361;BME280;54542;51.562;0.004;2022-07-12T11:01:15;102181.70;;;25.41;29.15
42361;BME280;54542;51.562;0.004;2022-07-12T11:03:45;102179.03;;;24.86;29.41
42361;BME280;54542;51.562;0.004;2022-07-12T11:06:15;102182.67;;;25.03;29.45
42361;BME280;54542;51.562;0.004;2022-07-12T11:08:58;102172.39;;;25.81;29.33
42361;BME280;54542;51.562;0.004;2022-07-12T11:11:28;102162.43;;;25.98;28.91
42361;BME280;54542;51.562;0.004;2022-07-12T11:13:57;102169.02;;;26.59;28.17
42361;BME280;54542;51.562;0.004;2022-07-12T11:16:25;102174.93;;;26.29;28.24
42361;BME280;54542;51.562;0.004;2022-07-12T11:18:52;102175.74;;;26.27;27.92
42361;BME280;54542;51.562;0.004;2022-07-12T11:21:21;102169.99;;;25.91;28.74
42361;BME280;54542;51.562;0.004;2022-07-12T11:23:49;102168.62;;;25.69;28.57
42361;BME280;54542;51.562;0.004;2022-07-12T11:26:16;102164.03;;;25.85;28.98
42361;BME280;54542;51.562;0.004;2022-07-12T11:28:45;102168.02;;;25.84;28.74
42361;BME280;54542;51.562;0.004;2022-07-12T11:31:14;102165.03;;;26.66;27.96
42361;BME280;54542;51.562;0.004;2022-07-12T11:33:43;102164.29;;;25.81;27.63
42361;BME280;54542;51.562;0.004;2022-07-12T11:36:12;102167.88;;;25.98;28.11
42361;BME280;54542;51.562;0.004;2022-07-12T11:38:42;102164.78;;;25.91;28.54
42361;BME280;54542;51.562;0.004;2022-07-12T11:41:11;102160.14;;;25.58;28.58
42361;BME280;54542;51.562;0.004;2022-07-12T11:43:39;102160.64;;;26.78;27.73
42361;BME280;54542;51.562;0.004;2022-07-12T11:46:07;102160.42;;;26.94;27.89
42361;BME280;54542;51.562;0.004;2022-07-12T11:48:35;102165.60;;;26.22;28.07
42361;BME280;54542;51.562;0.004;2022-07-12T11:51:04;102158.96;;;27.24;27.65
42361;BME280;54542;51.562;0.004;2022-07-12T11:53:33;102157.38;;;26.88;27.07
42361;BME280;54542;51.562;0.004;2022-07-12T11:56:03;102154.75;;;27.03;26.83
42361;BME280;54542;51.562;0.004;2022-07-12T11:58:31;102160.54;;;28.69;27.01
42361;BME280;54542;51.562;0.004;2022-07-12T12:00:59;102155.59;;;27.71;27.05
42361;BME280;54542;51.562;0.004;2022-07-12T12:03:26;102158.76;;;26.67;27.15
42361;BME280;54542;51.562;0.004;2022-07-12T12:05:55;102150.82;;;27.52;26.79
42361;BME280;54542;51.562;0.004;2022-07-12T12:08:23;102155.91;;;28.42;26.23
42361;BME280;54542;51.562;0.004;2022-07-12T12:10:55;102143.81;;;28.00;26.09
42361;BME280;54542;51.562;0.004;2022-07-12T12:13:27;102139.72;;;28.90;25.51
42361;BME280;54542;51.562;0.004;2022-07-12T12:15:56;102142.63;;;27.24;26.49
42361;BME280;54542;51.562;0.004;2022-07-12T12:18:33;102134.81;;;27.80;26.46
42361;BME280;54542;51.562;0.004;2022-07-12T12:21:02;102137.38;;;27.31;26.53
42361;BME280;54542;51.562;0.004;2022-07-12T12:23:30;102126.90;;;28.24;26.00
42361;BME280;54542;51.562;0.004;2022-07-12T12:26:14;102126.87;;;28.71;25.80
42361;BME280;54542;51.562;0.004;2022-07-12T12:28:44;102125.20;;;28.15;25.07
42361;BME280;54542;51.562;0.004;2022-07-12T12:31:13;102116.11;;;28.44;25.35
42361;BME280;54542;51.562;0.004;2022-07-12T12:33:42;102119.94;;;28.11;25.82
42361;BME280;54542;51.562;0.004;2022-07-12T12:36:13;102117.15;;;27.25;25.53
42361;BME280;54542;51.562;0.004;2022-07-12T12:38:41;102107.89;;;28.14;25.61
42361;BME280;54542;51.562;0.004;2022-07-12T12:41:08;102111.53;;;28.67;25.09
42361;BME280;54542;51.562;0.004;2022-07-12T12:43:36;102108.96;;;28.77;24.61
42361;BME280;54542;51.562;0.004;2022-07-12T12:46:05;102101.47;;;27.92;24.49
42361;BME280;54542;51.562;0.004;2022-07-12T12:48:33;102107.63;;;28.68;24.49
42361;BME280;54542;51.562;0.004;2022-07-12T12:51:06;102096.74;;;28.88;24.29
42361;BME280;54542;51.562;0.004;2022-07-12T12:53:34;102108.44;;;27.57;25.30
42361;BME280;54542;51.562;0.004;2022-07-12T12:56:01;102102.90;;;27.64;25.48
42361;BME280;54542;51.562;0.004;2022-07-12T12:58:29;102101.98;;;27.11;25.70
42361;BME280;54542;51.562;0.004;2022-07-12T13:00:56;102099.22;;;26.94;25.65
42361;BME280;54542;51.562;0.004;2022-07-12T13:03:24;102099.29;;;27.63;25.24
42361;BME280;54542;51.562;0.004;2022-07-12T13:05:51;102093.81;;;26.50;26.07
42361;BME280;54542;51.562;0.004;2022-07-12T13:08:19;102091.50;;;26.92;26.26
42361;BME280;54542;51.562;0.004;2022-07-12T13:10:47;102088.90;;;26.99;26.36
42361;BME280;54542;51.562;0.004;2022-07-12T13:13:14;102094.32;;;26.66;26.70
42361;BME280;54542;51.562;0.004;2022-07-12T13:15:42;102098.28;;;26.18;27.00
42361;BME280;54542;51.562;0.004;2022-07-12T13:18:09;102096.21;;;27.27;27.08
42361;BME280;54542;51.562;0.004;2022-07-12T13:20:36;102095.72;;;27.06;26.66
42361;BME280;54542;51.562;0.004;2022-07-12T13:23:04;102095.33;;;27.54;26.63
42361;BME280;54542;51.562;0.004;2022-07-12T13:25:31;102094.09;;;27.90;25.74
42361;BME280;54542;51.562;0.004;2022-07-12T13:27:59;102092.66;;;28.24;25.48
42361;BME280;54542;51.562;0.004;2022-07-12T13:30:26;102093.80;;;28.27;24.99
42361;BME280;54542;51.562;0.004;2022-07-12T13:32:54;102094.14;;;28.23;25.04
42361;BME280;54542;51.562;0.004;2022-07-12T13:35:21;102085.69;;;28.84;25.13
42361;BME280;54542;51.562;0.004;2022-07-12T13:37:48;102087.54;;;29.35;24.58
42361;BME280;54542;51.562;0.004;2022-07-12T13:40:16;102082.20;;;29.62;24.08
42361;BME280;54542;51.562;0.004;2022-07-12T13:42:45;102084.08;;;29.31;24.47
42361;BME280;54542;51.562;0.004;2022-07-12T13:45:16;102082.56;;;29.81;24.00
42361;BME280;54542;51.562;0.004;2022-07-12T13:47:44;102071.02;;;29.09;24.18
42361;BME280;54542;51.562;0.004;2022-07-12T13:50:13;102065.55;;;29.60;23.91
42361;BME280;54542;51.562;0.004;2022-07-12T13:52:42;102071.73;;;28.37;24.68
42361;BME280;54542;51.562;0.004;2022-07-12T13:55:11;102063.81;;;27.33;25.91
42361;BME280;54542;51.562;0.004;2022-07-12T13:57:40;102070.16;;;27.40;25.87
42361;BME280;54542;51.562;0.004;2022-07-12T14:00:10;102075.09;;;28.04;25.49
42361;BME280;54542;51.562;0.004;2022-07-12T14:02:39;102061.15;;;27.64;25.65
42361;BME280;54542;51.562;0.004;2022-07-12T14:05:07;102063.53;;;27.80;25.53
42361;BME280;54542;51.562;0.004;2022-07-12T14:07:36;102067.26;;;28.50;25.14
42361;BME280;54542;51.562;0.004;2022-07-12T14:10:05;102069.42;;;27.67;25.23
42361;BME280;54542;51.562;0.004;2022-07-12T14:12:33;102069.85;;;27.95;25.17
42361;BME280;54542;51.562;0.004;2022-07-12T14:15:00;102071.43;;;26.92;25.32
42361;BME280;54542;51.562;0.004;2022-07-12T14:17:28;102063.46;;;26.80;26.11
42361;BME280;54542;51.562;0.004;2022-07-12T14:19:55;102066.00;;;27.34;26.11
42361;BME280;54542;51.562;0.004;2022-07-12T14:22:22;102063.39;;;28.02;25.96
42361;BME280;54542;51.562;0.004;2022-07-12T14:24:50;102059.94;;;28.16;25.43
42361;BME280;54542;51.562;0.004;2022-07-12T14:27:17;102056.62;;;27.23;25.88
42361;BME280;54542;51.562;0.004;2022-07-12T14:29:45;102060.41;;;27.92;26.06